createdAt,value
2022-11-09T00:00:53.125Z,60.07
2022-11-09T00:03:19.807Z,60.87
2022-11-09T00:05:58.529Z,60.93
2022-11-09T00:08:25.205Z,60.56
2022-11-09T00:10:54.013Z,60.76
2022-11-09T00:13:21.474Z,60.76
2022-11-09T00:15:50.921Z,60.81
2022-11-09T00:18:17.369Z,60.87
2022-11-09T00:20:47.698Z,60.53
2022-11-09T00:23:15.788Z,60.38
2022-11-09T00:25:42.250Z,60.07
2022-11-09T00:28:09.823Z,60.27
2022-11-09T00:30:36.231Z,60.05
2022-11-09T00:33:02.697Z,60.02
2022-11-09T00:35:29.112Z,60.36
2022-11-09T00:37:55.598Z,60.84
2022-11-09T00:40:22.077Z,60.47
2022-11-09T00:42:48.658Z,59.98
2022-11-09T00:45:15.853Z,60.48
2022-11-09T00:47:42.298Z,60.47
2022-11-09T00:50:08.902Z,59.50
2022-11-09T00:52:36.485Z,60.17
2022-11-09T00:55:03.055Z,60.46
2022-11-09T00:57:30.806Z,60.75
2022-11-09T00:59:57.220Z,60.70
2022-11-09T01:02:25.004Z,60.83
2022-11-09T01:04:51.433Z,60.73
2022-11-09T01:07:18.592Z,60.87
2022-11-09T01:09:45.306Z,60.19
2022-11-09T01:12:11.767Z,60.71
2022-11-09T01:14:38.161Z,60.93
2022-11-09T01:17:04.696Z,60.39
2022-11-09T01:19:31.174Z,60.59
2022-11-09T01:21:57.705Z,60.56
2022-11-09T01:24:24.150Z,60.63
2022-11-09T01:26:50.574Z,59.77
2022-11-09T01:29:16.978Z,60.51
2022-11-09T01:31:43.718Z,60.43
2022-11-09T01:34:10.199Z,60.43
2022-11-09T01:36:37.118Z,59.73
2022-11-09T01:39:03.627Z,60.46
2022-11-09T01:41:30.005Z,59.57
2022-11-09T01:44:06.977Z,60.33
2022-11-09T01:46:34.822Z,59.97
2022-11-09T01:49:04.254Z,60.53
2022-11-09T01:51:32.536Z,60.26
2022-11-09T01:54:02.873Z,60.73
2022-11-09T01:56:29.385Z,61.10
2022-11-09T01:58:58.056Z,61.26
2022-11-09T02:01:28.260Z,61.11
2022-11-09T02:03:56.834Z,61.29
2022-11-09T02:06:25.197Z,61.37
2022-11-09T02:08:52.450Z,61.36
2022-11-09T02:11:19.372Z,60.50
2022-11-09T02:13:48.322Z,60.76
2022-11-09T02:16:15.084Z,60.84
2022-11-09T02:18:43.717Z,59.72
2022-11-09T02:21:10.127Z,59.87
2022-11-09T02:23:36.514Z,59.03
2022-11-09T02:26:05.398Z,58.80
2022-11-09T02:28:32.189Z,58.60
2022-11-09T02:30:58.786Z,59.19
2022-11-09T02:33:25.819Z,59.19
2022-11-09T02:35:53.302Z,59.47
2022-11-09T02:38:20.971Z,59.95
2022-11-09T02:40:48.283Z,59.61
2022-11-09T02:43:15.093Z,60.02
2022-11-09T02:45:43.159Z,59.54
2022-11-09T02:48:09.721Z,59.31
2022-11-09T02:50:37.193Z,58.61
2022-11-09T02:53:05.378Z,59.17
2022-11-09T02:55:34.467Z,58.45
2022-11-09T02:58:01.712Z,57.46
2022-11-09T03:00:29.651Z,57.95
2022-11-09T03:02:56.381Z,58.38
2022-11-09T03:05:23.013Z,57.40
2022-11-09T03:07:49.496Z,56.56
2022-11-09T03:10:16.241Z,55.92
2022-11-09T03:12:42.792Z,56.74
2022-11-09T03:15:11.957Z,55.82
2022-11-09T03:17:42.568Z,56.13
2022-11-09T03:20:09.806Z,57.38
2022-11-09T03:22:37.120Z,59.19
2022-11-09T03:25:03.676Z,61.72
2022-11-09T03:27:30.586Z,63.18
2022-11-09T03:29:57.179Z,63.75
2022-11-09T03:32:24.042Z,65.11
2022-11-09T03:34:51.532Z,65.50
2022-11-09T03:37:18.852Z,65.77
2022-11-09T03:39:45.519Z,66.64
2022-11-09T03:42:11.957Z,66.95
2022-11-09T03:44:39.295Z,66.38
2022-11-09T03:47:05.688Z,66.37
2022-11-09T03:49:32.164Z,67.07
2022-11-09T03:51:58.594Z,66.80
2022-11-09T03:54:25.024Z,66.56
2022-11-09T03:56:51.490Z,66.81
2022-11-09T03:59:17.932Z,67.22
2022-11-09T04:01:44.392Z,67.15
2022-11-09T04:04:10.874Z,67.04
2022-11-09T04:06:37.289Z,67.20
2022-11-09T04:09:03.733Z,67.45
2022-11-09T04:11:30.388Z,67.98
2022-11-09T04:13:56.802Z,68.24
2022-11-09T04:16:23.258Z,68.65
2022-11-09T04:18:49.709Z,68.93
2022-11-09T04:21:19.152Z,69.01
2022-11-09T04:23:49.752Z,68.88
2022-11-09T04:26:16.154Z,69.14
2022-11-09T04:28:42.588Z,69.24
2022-11-09T04:31:09.094Z,68.86
2022-11-09T04:33:35.593Z,68.95
2022-11-09T04:36:03.442Z,69.32
2022-11-09T04:38:30.661Z,68.58
2022-11-09T04:40:59.987Z,69.00
2022-11-09T04:43:26.408Z,68.99
2022-11-09T04:45:53.107Z,68.93
2022-11-09T04:48:19.491Z,69.25
2022-11-09T04:50:45.929Z,69.04
2022-11-09T04:53:13.040Z,68.98
2022-11-09T04:55:39.631Z,69.45
2022-11-09T04:58:06.153Z,69.34
2022-11-09T05:00:32.720Z,69.70
2022-11-09T05:03:00.597Z,69.99
2022-11-09T05:05:27.426Z,69.74
2022-11-09T05:07:53.866Z,69.92
2022-11-09T05:10:20.290Z,70.30
2022-11-09T05:12:46.716Z,70.46
2022-11-09T05:15:13.203Z,70.42
2022-11-09T05:17:39.670Z,70.41
2022-11-09T05:20:06.369Z,70.30
2022-11-09T05:22:51.259Z,70.70
2022-11-09T05:25:17.731Z,70.14
2022-11-09T05:27:44.122Z,70.62
2022-11-09T05:30:10.811Z,70.74
2022-11-09T05:32:39.003Z,70.78
2022-11-09T05:35:05.713Z,70.99
2022-11-09T05:37:32.309Z,70.62
2022-11-09T05:39:58.767Z,70.63
2022-11-09T05:42:25.214Z,70.28
2022-11-09T05:44:51.646Z,70.59
2022-11-09T05:47:19.500Z,70.49
2022-11-09T05:49:49.119Z,70.71
2022-11-09T05:52:15.583Z,70.67
2022-11-09T05:54:42.112Z,70.53
2022-11-09T05:57:08.491Z,71.29
2022-11-09T05:59:34.895Z,71.00
2022-11-09T06:02:01.322Z,70.93
2022-11-09T06:04:27.862Z,70.92
2022-11-09T06:06:54.319Z,71.41
2022-11-09T06:09:20.905Z,70.93
2022-11-09T06:11:47.487Z,70.88
2022-11-09T06:14:14.029Z,71.23
2022-11-09T06:16:40.526Z,71.63
2022-11-09T06:19:07.035Z,71.76
2022-11-09T06:21:33.531Z,71.03
2022-11-09T06:24:00.062Z,71.17
2022-11-09T06:26:26.858Z,71.02
2022-11-09T06:28:53.330Z,71.04
2022-11-09T06:31:20.658Z,70.60
2022-11-09T06:33:47.192Z,69.89
2022-11-09T06:36:13.779Z,70.60
2022-11-09T06:38:40.456Z,70.74
2022-11-09T06:41:06.934Z,69.75
2022-11-09T06:43:33.353Z,70.27
2022-11-09T06:46:02.119Z,70.96
2022-11-09T06:48:28.922Z,71.37
2022-11-09T06:50:59.091Z,70.76
2022-11-09T06:53:27.735Z,70.89
2022-11-09T06:55:56.916Z,70.48
2022-11-09T06:58:23.364Z,71.17
2022-11-09T07:00:50.373Z,70.82
2022-11-09T07:03:17.902Z,70.50
2022-11-09T07:05:44.929Z,69.73
2022-11-09T07:08:11.463Z,69.84
2022-11-09T07:10:37.989Z,69.38
2022-11-09T07:13:04.931Z,69.82
2022-11-09T07:15:31.682Z,69.73
2022-11-09T07:18:01.801Z,69.42
2022-11-09T07:20:28.509Z,70.10
2022-11-09T07:22:55.019Z,70.56
2022-11-09T07:25:21.507Z,76.02
2022-11-09T07:27:48.183Z,77.30
2022-11-09T07:30:14.896Z,74.28
2022-11-09T07:35:28.706Z,72.44
2022-11-09T07:37:55.320Z,71.76
2022-11-09T07:40:21.837Z,72.05
2022-11-09T07:42:48.242Z,71.46
2022-11-09T07:45:15.032Z,71.74
2022-11-09T07:47:41.500Z,71.36
2022-11-09T07:50:08.076Z,71.32
2022-11-09T07:52:34.573Z,70.73
2022-11-09T07:55:01.029Z,71.24
2022-11-09T07:57:27.488Z,70.90
2022-11-09T07:59:54.058Z,71.03
2022-11-09T08:02:20.811Z,70.71
2022-11-09T08:04:47.268Z,70.76
2022-11-09T08:07:13.749Z,70.57
2022-11-09T08:09:40.264Z,69.82
2022-11-09T08:12:06.774Z,70.07
2022-11-09T08:14:33.648Z,70.34
2022-11-09T08:17:00.156Z,70.29
2022-11-09T08:19:26.623Z,70.29
2022-11-09T08:21:57.279Z,70.65
2022-11-09T08:24:24.263Z,70.39
2022-11-09T08:26:50.725Z,70.78
2022-11-09T08:29:17.464Z,70.78
2022-11-09T08:31:43.893Z,70.28
2022-11-09T08:34:11.077Z,69.97
2022-11-09T08:36:37.630Z,70.39
2022-11-09T08:39:04.072Z,70.28
2022-11-09T08:41:30.573Z,70.65
2022-11-09T08:43:56.963Z,70.22
2022-11-09T08:46:23.368Z,70.33
2022-11-09T08:48:49.813Z,70.68
2022-11-09T08:51:16.276Z,70.70
2022-11-09T08:53:42.734Z,70.06
2022-11-09T08:56:09.570Z,70.28
2022-11-09T08:58:35.996Z,70.35
2022-11-09T09:01:06.047Z,71.08
2022-11-09T09:03:32.473Z,70.96
2022-11-09T09:06:02.266Z,71.27
2022-11-09T09:08:28.916Z,71.37
2022-11-09T09:10:55.310Z,71.14
2022-11-09T09:13:22.739Z,70.58
2022-11-09T09:15:49.639Z,70.58
2022-11-09T09:18:16.109Z,70.31
2022-11-09T09:20:42.781Z,71.10
2022-11-09T09:23:09.214Z,71.08
2022-11-09T09:25:35.653Z,70.84
2022-11-09T09:28:02.135Z,70.25
2022-11-09T09:30:29.015Z,70.38
2022-11-09T09:32:59.617Z,70.25
2022-11-09T09:35:26.984Z,70.01
2022-11-09T09:37:53.725Z,70.72
2022-11-09T09:40:25.029Z,70.61
2022-11-09T09:42:51.442Z,71.11
2022-11-09T09:45:25.486Z,70.84
2022-11-09T09:47:59.009Z,70.82
2022-11-09T09:50:27.102Z,70.89
2022-11-09T09:53:23.392Z,72.26
2022-11-09T09:55:53.554Z,71.63
2022-11-09T09:58:39.342Z,72.29
2022-11-09T10:01:07.414Z,72.73
2022-11-09T10:03:33.887Z,72.61
2022-11-09T10:06:00.326Z,72.71
2022-11-09T10:08:49.983Z,73.13
2022-11-09T10:11:35.649Z,71.95
2022-11-09T10:14:15.587Z,72.27
2022-11-09T10:17:00.951Z,72.15
2022-11-09T10:19:49.699Z,72.28
2022-11-09T10:22:20.630Z,71.74
2022-11-09T10:27:37.845Z,71.76
2022-11-09T10:30:15.305Z,71.37
2022-11-09T10:32:42.039Z,71.04
2022-11-09T10:35:21.748Z,70.92
2022-11-09T10:37:50.022Z,69.85
2022-11-09T10:40:19.564Z,70.21
2022-11-09T10:43:06.871Z,69.78
2022-11-09T10:45:59.582Z,69.51
2022-11-09T10:48:44.631Z,69.84
2022-11-09T10:51:32.531Z,69.46
2022-11-09T10:54:24.667Z,69.14
2022-11-09T10:57:25.264Z,69.31
2022-11-09T11:00:19.765Z,69.22
2022-11-09T11:03:14.328Z,68.79
2022-11-09T11:06:00.715Z,68.61
2022-11-09T11:08:46.358Z,67.80
2022-11-09T11:11:34.510Z,67.46
2022-11-09T11:14:23.843Z,67.09
2022-11-09T11:17:24.946Z,67.43
2022-11-09T11:20:26.471Z,67.17
2022-11-09T11:23:19.047Z,67.27
2022-11-09T11:26:09.464Z,66.95
2022-11-09T11:29:02.117Z,66.88
2022-11-09T11:31:47.615Z,66.64
2022-11-09T11:34:58.398Z,66.23
2022-11-09T11:37:56.338Z,66.66
2022-11-09T11:41:04.640Z,66.82
2022-11-09T11:43:58.461Z,67.35
2022-11-09T11:46:47.464Z,67.04
2022-11-09T11:49:36.265Z,66.78
2022-11-09T11:52:30.661Z,66.23
2022-11-09T11:55:15.633Z,66.35
2022-11-09T11:58:09.631Z,66.70
2022-11-09T12:01:00.659Z,66.84
2022-11-09T12:03:50.309Z,66.59
2022-11-09T12:06:54.573Z,66.84
2022-11-09T12:09:53.556Z,66.41
2022-11-09T12:12:48.109Z,66.54
2022-11-09T12:15:39.674Z,66.62
2022-11-09T12:18:30.660Z,66.31
2022-11-09T12:21:21.269Z,66.69
2022-11-09T12:24:17.793Z,66.52
2022-11-09T12:30:19.266Z,66.51
2022-11-09T12:33:07.584Z,66.24
2022-11-09T12:35:56.542Z,66.42
2022-11-09T12:38:47.634Z,66.81
2022-11-09T12:41:33.894Z,66.13
2022-11-09T12:44:39.840Z,66.70
2022-11-09T12:47:28.150Z,66.91
2022-11-09T12:50:13.970Z,66.75
2022-11-09T12:53:02.359Z,66.53
2022-11-09T12:55:59.407Z,66.89
2022-11-09T12:58:47.119Z,66.90
2022-11-09T13:01:40.776Z,66.92
2022-11-09T13:04:27.335Z,66.81
2022-11-09T13:07:32.075Z,66.36
2022-11-09T13:10:34.571Z,66.86
2022-11-09T13:13:22.675Z,66.51
2022-11-09T13:16:12.421Z,65.96
2022-11-09T13:18:57.689Z,65.90
2022-11-09T13:21:42.810Z,65.30
2022-11-09T13:24:30.954Z,65.81
2022-11-09T13:27:34.493Z,65.86
2022-11-09T13:30:25.487Z,65.69
2022-11-09T13:33:16.483Z,65.31
2022-11-09T13:36:07.486Z,66.04
2022-11-09T13:39:16.122Z,66.11
2022-11-09T13:42:00.918Z,67.00
2022-11-09T13:44:47.451Z,67.22
2022-11-09T13:47:34.579Z,67.08
2022-11-09T13:50:23.015Z,67.67
2022-11-09T13:53:28.493Z,67.34
2022-11-09T13:56:27.236Z,67.68
2022-11-09T13:59:22.011Z,68.01
2022-11-09T14:02:15.850Z,67.84
2022-11-09T14:05:01.826Z,68.80
2022-11-09T14:07:47.063Z,69.30
2022-11-09T14:10:32.285Z,69.59
2022-11-09T14:13:20.435Z,69.30
2022-11-09T14:16:15.623Z,69.19
2022-11-09T14:19:09.810Z,68.95
2022-11-09T14:21:54.786Z,69.24
2022-11-09T14:24:39.844Z,69.57
2022-11-09T14:27:24.622Z,69.72
2022-11-09T14:30:22.424Z,69.88
2022-11-09T14:33:27.033Z,70.07
2022-11-09T14:36:11.854Z,70.59
2022-11-09T14:38:58.488Z,70.59
2022-11-09T14:41:43.639Z,70.58
2022-11-09T14:44:32.193Z,70.24
2022-11-09T14:47:18.461Z,70.36
2022-11-09T14:50:03.564Z,70.48
2022-11-09T14:52:49.130Z,70.59
2022-11-09T14:55:34.272Z,70.43
2022-11-09T14:58:19.818Z,71.13
2022-11-09T15:01:17.687Z,70.95
2022-11-09T15:04:05.841Z,70.82
2022-11-09T15:07:00.003Z,70.57
2022-11-09T15:09:48.134Z,70.63
2022-11-09T15:12:33.455Z,70.91
2022-11-09T15:15:20.324Z,71.68
2022-11-09T15:18:05.602Z,71.43
2022-11-09T15:21:09.673Z,70.96
2022-11-09T15:24:05.863Z,71.46
2022-11-09T15:26:51.196Z,71.24
2022-11-09T15:29:45.251Z,71.00
2022-11-09T15:32:34.359Z,70.91
2022-11-09T15:35:19.626Z,71.27
2022-11-09T15:38:05.030Z,71.52
2022-11-09T15:40:50.148Z,70.83
2022-11-09T15:43:35.119Z,72.26
2022-11-09T15:46:20.977Z,71.91
2022-11-09T15:49:23.078Z,71.46
2022-11-09T15:52:09.377Z,71.46
2022-11-09T15:54:54.539Z,71.57
2022-11-09T15:57:39.410Z,71.64
2022-11-09T16:00:24.219Z,71.87
2022-11-09T16:03:09.823Z,71.83
2022-11-09T16:05:54.954Z,71.81
2022-11-09T16:08:40.186Z,71.21
2022-11-09T16:11:25.107Z,71.31
2022-11-09T16:14:10.731Z,71.40
2022-11-09T16:16:55.649Z,71.81
2022-11-09T16:19:45.996Z,71.76
2022-11-09T16:22:48.490Z,71.89
2022-11-09T16:25:33.772Z,71.56
2022-11-09T16:28:19.536Z,71.38
2022-11-09T16:31:04.656Z,71.47
2022-11-09T16:33:58.983Z,71.21
2022-11-09T16:36:56.852Z,71.75
2022-11-09T16:39:42.242Z,71.85
2022-11-09T16:42:29.531Z,72.07
2022-11-09T16:45:44.918Z,71.40
2022-11-09T16:48:33.963Z,72.06
2022-11-09T16:51:19.239Z,72.19
2022-11-09T16:54:04.541Z,71.98
2022-11-09T16:56:49.525Z,72.24
2022-11-09T16:59:36.146Z,72.29
2022-11-09T17:02:21.635Z,72.29
2022-11-09T17:05:07.379Z,72.44
2022-11-09T17:07:52.671Z,72.43
2022-11-09T17:10:42.090Z,72.24
2022-11-09T17:13:27.341Z,72.20
2022-11-09T17:16:12.658Z,71.93
2022-11-09T17:18:58.129Z,72.26
2022-11-09T17:21:43.196Z,72.18
2022-11-09T17:24:28.199Z,72.18
2022-11-09T17:27:13.441Z,72.22
2022-11-09T17:29:58.371Z,72.65
2022-11-09T17:32:43.296Z,72.55
2022-11-09T17:35:28.826Z,72.43
2022-11-09T17:38:14.086Z,72.34
2022-11-09T17:41:06.764Z,72.25
2022-11-09T17:43:52.333Z,72.33
2022-11-09T17:46:38.187Z,72.38
2022-11-09T17:49:23.563Z,72.55
2022-11-09T17:52:08.588Z,72.52
2022-11-09T17:54:53.489Z,72.45
2022-11-09T17:57:38.609Z,72.28
2022-11-09T18:00:23.559Z,72.50
2022-11-09T18:03:08.694Z,72.61
2022-11-09T18:05:53.547Z,72.35
2022-11-09T18:08:38.503Z,72.28
2022-11-09T18:11:23.903Z,72.39
2022-11-09T18:14:11.081Z,72.29
2022-11-09T18:17:02.139Z,72.38
2022-11-09T18:19:47.491Z,72.40
2022-11-09T18:22:32.461Z,72.30
2022-11-09T18:25:17.685Z,72.60
2022-11-09T18:28:02.766Z,72.44
2022-11-09T18:30:47.708Z,72.38
2022-11-09T18:33:32.776Z,72.54
2022-11-09T18:36:19.366Z,72.26
2022-11-09T18:39:04.660Z,72.16
2022-11-09T18:41:49.755Z,72.15
2022-11-09T18:44:34.991Z,72.34
2022-11-09T18:47:20.548Z,72.51
2022-11-09T18:50:06.566Z,72.31
2022-11-09T18:52:51.506Z,72.39
2022-11-09T18:55:36.284Z,71.27
2022-11-09T18:58:21.792Z,71.43
2022-11-09T19:01:07.383Z,72.17
2022-11-09T19:03:57.733Z,72.15
2022-11-09T19:06:45.585Z,71.93
2022-11-09T19:09:38.504Z,72.03
2022-11-09T19:12:24.224Z,71.62
2022-11-09T19:15:09.588Z,71.49
2022-11-09T19:17:54.817Z,71.93
2022-11-09T19:20:39.584Z,71.79
2022-11-09T19:23:27.399Z,71.89
2022-11-09T19:26:16.455Z,71.77
2022-11-09T19:29:01.598Z,71.80
2022-11-09T19:31:46.714Z,72.13
2022-11-09T19:34:32.451Z,72.10
2022-11-09T19:37:17.609Z,71.83
2022-11-09T19:40:03.291Z,71.94
2022-11-09T19:42:48.215Z,72.37
2022-11-09T19:45:33.521Z,72.55
2022-11-09T19:48:21.411Z,71.97
2022-11-09T19:51:11.286Z,71.68
2022-11-09T19:54:15.814Z,71.93
2022-11-09T19:57:01.062Z,72.19
2022-11-09T19:59:46.660Z,72.17
2022-11-09T20:02:33.047Z,72.31
2022-11-09T20:05:21.621Z,72.30
2022-11-09T20:08:06.943Z,72.25
2022-11-09T20:10:52.836Z,72.18
2022-11-09T20:14:12.266Z,71.95
2022-11-09T20:17:03.039Z,72.40
2022-11-09T20:20:39.221Z,71.84
2022-11-09T20:23:24.321Z,72.27
2022-11-09T20:26:10.643Z,72.36
2022-11-09T20:28:55.976Z,71.79
2022-11-09T20:35:15.774Z,71.97
2022-11-09T20:38:00.614Z,71.78
2022-11-09T20:40:52.319Z,71.57
2022-11-09T20:43:37.629Z,71.60
2022-11-09T20:46:23.324Z,72.18
2022-11-09T20:49:09.232Z,71.76
2022-11-09T20:51:54.892Z,72.26
2022-11-09T20:54:39.743Z,72.40
2022-11-09T20:57:24.854Z,71.64
2022-11-09T21:00:10.169Z,71.92
2022-11-09T21:02:55.434Z,72.17
2022-11-09T21:05:40.449Z,71.67
2022-11-09T21:08:25.464Z,71.36
2022-11-09T21:11:12.926Z,72.05
2022-11-09T21:13:58.638Z,73.84
2022-11-09T21:16:43.507Z,74.86
2022-11-09T21:19:28.434Z,75.11
2022-11-09T21:22:13.687Z,76.47
2022-11-09T21:25:17.526Z,74.84
2022-11-09T21:28:21.735Z,72.50
2022-11-09T21:31:06.647Z,73.09
2022-11-09T21:33:54.568Z,74.17
2022-11-09T21:36:41.380Z,72.17
2022-11-09T21:39:26.282Z,72.85
2022-11-09T21:42:14.220Z,71.51
2022-11-09T21:44:59.297Z,71.69
2022-11-09T21:47:44.160Z,72.39
2022-11-09T21:50:29.124Z,72.72
2022-11-09T21:53:13.947Z,73.03
2022-11-09T21:55:59.425Z,72.65
2022-11-09T21:58:47.975Z,71.50
2022-11-09T22:01:33.188Z,72.62
2022-11-09T22:04:18.568Z,72.56
2022-11-09T22:07:03.480Z,73.05
2022-11-09T22:10:09.481Z,72.74
2022-11-09T22:13:14.631Z,72.54
2022-11-09T22:16:09.415Z,73.22
2022-11-09T22:19:13.302Z,73.10
2022-11-09T22:21:58.634Z,72.87
2022-11-09T22:24:43.445Z,72.11
2022-11-09T22:27:30.094Z,71.74
2022-11-09T22:30:15.278Z,71.82
2022-11-09T22:33:00.114Z,71.88
2022-11-09T22:35:44.847Z,71.22
2022-11-09T22:38:31.154Z,72.54
2022-11-09T22:41:16.265Z,72.69
2022-11-09T22:44:01.467Z,72.48
2022-11-09T22:46:47.527Z,72.83
2022-11-09T22:49:32.470Z,73.31
2022-11-09T22:52:18.293Z,72.69
2022-11-09T22:55:03.582Z,72.27
2022-11-09T22:57:48.375Z,71.28
2022-11-09T23:00:33.402Z,71.64
2022-11-09T23:03:19.211Z,72.23
2022-11-09T23:06:08.728Z,71.70
2022-11-09T23:08:53.937Z,71.81
2022-11-09T23:11:38.900Z,71.76
2022-11-09T23:14:44.437Z,71.40
2022-11-09T23:17:51.151Z,71.66
2022-11-09T23:20:36.229Z,71.47
2022-11-09T23:23:21.713Z,71.33
2022-11-09T23:26:07.338Z,71.10
2022-11-09T23:28:53.490Z,72.87
2022-11-09T23:31:39.211Z,73.67
2022-11-09T23:34:24.121Z,73.52
2022-11-09T23:37:08.992Z,72.89
2022-11-09T23:39:53.984Z,73.44
2022-11-09T23:42:38.836Z,72.50
2022-11-09T23:45:23.833Z,71.06
2022-11-09T23:48:16.909Z,70.58
2022-11-09T23:51:02.514Z,70.26
2022-11-09T23:53:47.609Z,70.42
2022-11-09T23:56:32.461Z,70.28
2022-11-09T23:59:17.371Z,70.16
